Time;durP1;ratioP1;P1;durP2;ratioP2;P2;SDS_P1;SDS_P2;PMS_P1;PMS_P2;Temp;Humidity;BMP_temperature;BMP_pressure;BME280_temperature;BME280_humidity;BME280_pressure;Samples;Min_cycle;Max_cycle;Signal;HPM_P1;HPM_P2
2022/10/12 00:01:17;;;;;;;20.40;15.95;;;;;;;12.29;90.77;98330.63;10453000;28;19919;-58
2022/10/12 00:06:22;;;;;;;22.05;15.98;;;;;;;12.33;90.78;98328.91;10459794;28;20068;-58
2022/10/12 00:11:25;;;;;;;22.98;17.08;;;;;;;12.36;91.06;98321.97;10460481;28;20063;-58
2022/10/12 00:16:25;;;;;;;20.40;16.63;;;;;;;12.37;91.76;98318.50;10460296;28;20059;-58
2022/10/12 00:21:25;;;;;;;23.52;17.10;;;;;;;12.35;91.66;98314.16;10460089;28;20060;-58
2022/10/12 00:26:25;;;;;;;28.00;18.05;;;;;;;12.39;92.19;98318.47;10459450;28;20494;-58
2022/10/12 00:31:25;;;;;;;24.30;17.77;;;;;;;12.38;92.41;98319.38;10459390;28;20066;-58
2022/10/12 00:36:27;;;;;;;26.13;17.65;;;;;;;12.28;92.50;98314.16;10459308;28;20475;-58
2022/10/12 00:41:32;;;;;;;24.77;17.83;;;;;;;12.28;93.00;98314.16;10459245;28;20075;-58
2022/10/12 00:46:33;;;;;;;25.65;17.95;;;;;;;12.25;92.68;98308.91;10459448;28;20059;-58
2022/10/12 00:51:32;;;;;;;25.90;18.08;;;;;;;12.27;92.62;98319.31;10459323;28;20471;-58
2022/10/12 00:56:37;;;;;;;22.73;17.55;;;;;;;12.29;92.80;98315.00;10458383;28;20058;-58
2022/10/12 01:01:37;;;;;;;24.75;19.05;;;;;;;12.34;92.96;98312.41;10458692;28;20453;-58
2022/10/12 01:06:36;;;;;;;26.33;18.50;;;;;;;12.38;92.88;98320.22;10458004;28;20074;-58
2022/10/12 01:11:35;;;;;;;26.25;19.20;;;;;;;12.20;93.85;98313.22;10457933;28;20076;-58
2022/10/12 01:17:10;;;;;;;26.42;19.38;;;;;;;12.13;94.11;98308.88;10457988;28;20030;-58
2022/10/12 01:22:15;;;;;;;24.08;18.45;;;;;;;12.24;94.11;98309.78;10457419;28;20067;-58
2022/10/12 01:27:32;;;;;;;29.65;19.50;;;;;;;12.34;94.11;98304.59;10457278;28;20067;-58
2022/10/12 01:32:41;;;;;;;27.95;19.33;;;;;;;12.36;93.49;98305.47;10457268;28;20063;-58
2022/10/12 01:37:51;;;;;;;25.77;18.50;;;;;;;12.29;92.88;98307.19;10456942;28;20525;-58
2022/10/12 01:42:52;;;;;;;25.23;17.73;;;;;;;12.06;93.04;98307.13;10456954;28;20083;-58
2022/10/12 01:47:53;;;;;;;26.80;18.52;;;;;;;12.14;93.18;98315.84;10456594;28;20486;-58
2022/10/12 01:53:11;;;;;;;25.35;18.58;;;;;;;12.16;93.17;98316.72;10456961;28;20079;-58
2022/10/12 01:58:37;;;;;;;24.92;19.25;;;;;;;12.04;93.82;98312.34;10456104;28;20051;-58
2022/10/12 02:03:58;;;;;;;25.77;19.00;;;;;;;11.92;94.84;98314.91;10456268;28;20495;-58
2022/10/12 02:09:14;;;;;;;25.63;19.60;;;;;;;11.95;95.18;98314.06;10455759;28;20090;-58
2022/10/12 02:14:21;;;;;;;29.50;19.88;;;;;;;11.98;95.18;98320.13;10455622;28;20216;-58
2022/10/12 02:19:26;;;;;;;30.40;22.50;;;;;;;11.98;95.62;98314.06;10455242;28;20063;-58
2022/10/12 02:24:27;;;;;;;32.20;23.10;;;;;;;12.01;95.82;98324.47;10454856;28;20067;-58
2022/10/12 02:29:38;;;;;;;32.03;23.08;;;;;;;12.03;96.11;98330.53;10454798;28;20055;-58
2022/10/12 02:34:46;;;;;;;31.90;22.85;;;;;;;12.03;96.26;98325.34;10454564;28;20076;-58
2022/10/12 02:39:54;;;;;;;34.08;22.45;;;;;;;11.92;96.72;98329.66;10454814;28;20060;-58
2022/10/12 02:44:57;;;;;;;33.13;21.67;;;;;;;11.76;97.40;98324.41;10454802;28;20067;-58
2022/10/12 02:49:58;;;;;;;30.67;20.63;;;;;;;11.74;97.74;98320.94;10454386;28;20100;-58
2022/10/12 02:54:57;;;;;;;32.10;20.15;;;;;;;11.68;97.75;98326.09;10454034;28;20068;-58
2022/10/12 02:59:56;;;;;;;29.75;20.55;;;;;;;11.70;97.80;98328.72;10454331;28;20020;-58
2022/10/12 03:04:55;;;;;;;31.67;20.65;;;;;;;11.60;97.92;98322.63;10454019;28;20425;-58
2022/10/12 03:09:54;;;;;;;31.25;20.70;;;;;;;11.64;97.86;98317.44;10453933;28;20038;-58
2022/10/12 03:14:53;;;;;;;32.33;21.35;;;;;;;11.64;98.16;98324.34;10453924;28;20119;-58
2022/10/12 03:19:52;;;;;;;32.08;20.92;;;;;;;11.63;98.32;98322.63;10453744;28;20097;-58
2022/10/12 03:24:51;;;;;;;32.70;23.17;;;;;;;11.65;97.72;98323.50;10453864;28;20032;-58
2022/10/12 03:29:50;;;;;;;30.58;22.55;;;;;;;11.66;97.69;98325.22;10453679;28;20059;-58
2022/10/12 03:34:49;;;;;;;30.48;21.25;;;;;;;11.75;97.92;98325.25;10453334;28;20032;-58
2022/10/12 03:39:48;;;;;;;31.45;22.42;;;;;;;11.80;97.70;98336.53;10458647;28;20032;-58
2022/10/12 03:44:46;;;;;;;32.33;23.40;;;;;;;11.86;97.86;98346.97;10461371;28;20477;-58
2022/10/12 03:49:45;;;;;;;31.23;22.88;;;;;;;11.90;97.80;98337.47;10461519;28;20145;-58
2022/10/12 03:54:44;;;;;;;36.53;22.58;;;;;;;11.97;97.73;98338.31;10461495;28;20108;-58
2022/10/12 03:59:43;;;;;;;30.05;22.70;;;;;;;12.04;98.05;98333.16;10461004;28;20035;-58
2022/10/12 04:04:42;;;;;;;35.33;24.70;;;;;;;12.13;98.40;98331.44;10460635;28;20098;-58
2022/10/12 04:09:41;;;;;;;34.50;25.27;;;;;;;12.14;98.46;98331.44;10461083;28;20447;-58
2022/10/12 04:14:40;;;;;;;34.90;24.08;;;;;;;12.16;97.86;98339.22;10460100;28;20513;-58
2022/10/12 04:19:39;;;;;;;34.40;24.95;;;;;;;12.17;97.99;98343.59;10454978;28;20069;-58
2022/10/12 04:24:38;;;;;;;32.55;23.95;;;;;;;12.17;98.14;98339.25;10357693;28;20037;-58
2022/10/12 04:29:37;;;;;;;29.75;21.75;;;;;;;12.19;98.10;98345.31;10377029;28;20486;-58
2022/10/12 04:34:36;;;;;;;34.00;23.15;;;;;;;12.10;98.43;98346.16;10375738;28;20488;-58
2022/10/12 04:39:35;;;;;;;33.28;23.70;;;;;;;12.07;98.38;98346.16;10376348;28;20032;-58
2022/10/12 04:44:34;;;;;;;34.28;23.65;;;;;;;12.14;98.64;98356.59;10375702;28;20431;-58
2022/10/12 04:49:33;;;;;;;32.90;22.42;;;;;;;12.08;98.75;98350.50;10375376;28;20025;-58
2022/10/12 04:54:32;;;;;;;35.28;24.42;;;;;;;11.97;98.64;98359.13;10376667;28;20021;-58
2022/10/12 04:59:31;;;;;;;31.13;21.10;;;;;;;11.81;98.98;98371.25;10375683;28;20036;-58
2022/10/12 05:04:30;;;;;;;28.50;21.30;;;;;;;11.58;99.48;98366.78;10377366;28;20017;-58
2022/10/12 05:09:29;;;;;;;28.70;20.30;;;;;;;11.46;100.00;98378.00;10388526;28;20020;-58
2022/10/12 05:14:28;;;;;;;31.23;19.13;;;;;;;11.28;100.00;98377.88;10374205;28;20037;-58
2022/10/12 05:19:27;;;;;;;26.45;19.27;;;;;;;11.18;100.00;98376.09;10374511;28;20029;-58
2022/10/12 05:24:26;;;;;;;33.03;20.70;;;;;;;11.19;100.00;98370.03;10371039;28;20102;-58
2022/10/12 05:29:25;;;;;;;29.20;20.42;;;;;;;11.34;100.00;98393.53;10373949;28;20408;-58
2022/10/12 05:34:24;;;;;;;29.48;19.58;;;;;;;11.46;100.00;98388.38;10372655;28;20024;-58
2022/10/12 05:39:23;;;;;;;30.52;19.80;;;;;;;11.65;100.00;98393.69;10372395;28;20102;-58
2022/10/12 05:44:22;;;;;;;;;;;;;;;11.83;100.00;98393.78;10367240;28;20065;-58
2022/10/12 05:49:21;;;;;;;34.03;20.80;;;;;;;12.02;100.00;98406.84;10356344;28;19919;-58
2022/10/12 05:54:20;;;;;;;36.33;22.33;;;;;;;12.12;100.00;98399.94;10364163;28;20476;-58
2022/10/12 05:59:19;;;;;;;39.40;26.50;;;;;;;12.23;99.58;98401.72;10368664;28;20029;-58
2022/10/12 06:04:18;;;;;;;31.65;23.52;;;;;;;12.32;99.07;98413.91;10362904;28;20045;-58
2022/10/12 06:09:18;;;;;;;31.67;23.10;;;;;;;12.36;98.88;98410.44;10372814;28;20063;-58
2022/10/12 06:14:16;;;;;;;33.30;23.45;;;;;;;12.50;98.88;98419.16;10371564;28;20501;-58
2022/10/12 06:19:15;;;;;;;35.03;23.40;;;;;;;12.62;98.88;98418.28;10371973;28;20139;-58
2022/10/12 06:24:14;;;;;;;31.92;23.60;;;;;;;12.77;98.54;98422.69;10372761;28;20116;-58
2022/10/12 06:29:13;;;;;;;32.97;24.95;;;;;;;12.85;98.24;98431.34;10372670;28;20538;-58
2022/10/12 06:34:12;;;;;;;;;;;;;;;12.87;97.29;98436.56;10373002;28;20064;-58
2022/10/12 06:39:11;;;;;;;35.83;24.67;;;;;;;12.88;96.92;98435.69;10371559;28;20054;-58
2022/10/12 06:44:10;;;;;;;;;;;;;;;12.90;96.58;98434.81;10372129;28;20471;-58
2022/10/12 06:49:09;;;;;;;38.35;27.23;;;;;;;12.96;96.57;98443.53;10370699;28;20295;-58
2022/10/12 06:54:08;;;;;;;41.45;29.77;;;;;;;13.01;95.96;98437.44;10370897;28;20032;-58
2022/10/12 06:59:07;;;;;;;45.55;33.13;;;;;;;13.03;95.46;98451.34;10370837;28;20048;-58
2022/10/12 07:04:06;;;;;;;54.50;38.88;;;;;;;13.08;95.32;98443.53;10370611;28;20123;-58
2022/10/12 07:09:05;;;;;;;49.67;32.85;;;;;;;13.05;95.01;98433.13;10370738;28;20059;-58
2022/10/12 07:14:04;;;;;;;41.35;28.50;;;;;;;13.20;94.67;98453.94;10376624;28;20418;-58
2022/10/12 07:19:03;;;;;;;34.58;25.38;;;;;;;13.25;93.98;98452.19;10379522;28;20120;-58
2022/10/12 07:24:02;;;;;;;39.67;26.10;;;;;;;13.35;93.77;98460.88;10381022;28;20048;-58
2022/10/12 07:29:01;;;;;;;45.80;28.73;;;;;;;13.49;93.43;98451.31;10381556;28;20057;-58
2022/10/12 07:34:00;;;;;;;46.40;31.48;;;;;;;13.69;92.89;98456.53;10380897;28;20040;-58
2022/10/12 07:38:59;;;;;;;49.80;33.22;;;;;;;13.94;92.36;98459.94;10379193;28;20021;-58
2022/10/12 07:43:58;;;;;;;49.30;34.92;;;;;;;14.03;90.62;98455.53;10379824;28;20747;-58
2022/10/12 07:48:57;;;;;;;50.10;34.75;;;;;;;14.10;90.90;98460.75;10380419;28;20029;-58
2022/10/12 07:53:56;;;;;;;48.67;32.65;;;;;;;14.16;89.99;98437.22;10379993;28;20043;-58
2022/10/12 07:58:55;;;;;;;;;;;;;;;14.52;88.99;98460.53;10380066;28;20725;-58
2022/10/12 08:03:55;;;;;;;35.47;24.60;;;;;;;14.63;86.76;98459.59;10377000;28;19956;-58
2022/10/12 08:08:54;;;;;;;38.47;26.08;;;;;;;14.63;87.76;98463.97;10374629;28;20330;-59
2022/10/12 08:13:54;;;;;;;;;;;;;;;14.83;87.68;98454.28;10377078;28;20072;-58
2022/10/12 08:18:53;;;;;;;;;;;;;;;15.07;86.70;98461.97;10374033;28;19955;-58
2022/10/12 08:23:52;;;;;;;37.43;26.40;;;;;;;15.22;84.24;98460.13;10373042;28;19909;-58
2022/10/12 08:28:51;;;;;;;;;;;;;;;15.19;84.06;98459.25;10374146;28;20096;-58
2022/10/12 08:33:50;;;;;;;42.17;28.95;;;;;;;15.18;83.41;98466.25;10364598;28;19912;-58
2022/10/12 08:38:54;;;;;;;37.83;26.52;;;;;;;15.13;84.36;98462.81;10376909;28;20028;-58
2022/10/12 08:44:14;;;;;;;35.33;27.38;;;;;;;15.33;84.08;98470.47;10343002;28;20072;-58
2022/10/12 08:49:21;;;;;;;36.78;27.50;;;;;;;15.57;82.90;98463.28;10358549;28;20065;-58
2022/10/12 08:54:24;;;;;;;30.15;22.92;;;;;;;15.79;82.44;98446.50;10376696;28;20060;-58
2022/10/12 08:59:26;;;;;;;32.28;24.73;;;;;;;16.16;80.79;98458.28;10375527;28;20052;-58
2022/10/12 09:04:46;;;;;;;29.65;22.00;;;;;;;16.27;76.77;98456.41;10375605;28;20071;-59
2022/10/12 09:09:58;;;;;;;30.20;23.02;;;;;;;16.42;75.81;98463.19;10375217;28;20061;-58
2022/10/12 09:15:01;;;;;;;31.52;21.70;;;;;;;16.55;75.92;98458.69;10375516;28;20057;-58
2022/10/12 09:20:17;;;;;;;31.83;23.35;;;;;;;17.03;76.58;98459.75;10374718;28;20083;-58
2022/10/12 09:25:22;;;;;;;34.88;22.38;;;;;;;17.45;74.12;98451.16;10375014;28;20166;-59
2022/10/12 09:30:21;;;;;;;33.30;22.38;;;;;;;17.72;73.39;98455.94;10375359;28;20570;-58
2022/10/12 09:35:20;;;;;;;28.02;22.27;;;;;;;17.82;71.45;98451.41;10373380;28;20410;-58
2022/10/12 09:40:25;;;;;;;28.02;23.02;;;;;;;17.87;70.34;98460.06;10374789;28;20106;-58
2022/10/12 09:45:25;;;;;;;31.23;23.50;;;;;;;18.01;69.35;98453.66;10374316;28;20068;-59
2022/10/12 09:50:39;;;;;;;30.98;23.40;;;;;;;17.99;68.93;98448.47;10374100;28;20052;-58
2022/10/12 09:55:38;;;;;;;35.38;22.48;;;;;;;18.10;69.25;98456.09;10373623;28;20048;-59
2022/10/12 10:00:37;;;;;;;28.33;19.73;;;;;;;18.21;67.89;98448.88;10373172;28;20044;-58
2022/10/12 10:05:37;;;;;;;30.05;19.23;;;;;;;18.37;67.63;98444.19;10373404;28;20386;-59
2022/10/12 10:10:36;;;;;;;26.17;16.27;;;;;;;18.27;62.04;98434.75;10373426;28;20571;-58
2022/10/12 10:15:39;;;;;;;25.02;16.45;;;;;;;18.27;64.96;98432.13;10373540;28;20347;-59
2022/10/12 10:20:50;;;;;;;22.17;14.50;;;;;;;18.37;64.74;98423.16;10372764;28;20071;-59
2022/10/12 10:26:07;;;;;;;20.35;13.40;;;;;;;18.52;63.61;98412.28;10372812;28;20072;-58
2022/10/12 10:31:21;;;;;;;21.33;14.50;;;;;;;18.65;62.28;98404.16;10372525;28;20064;-59
2022/10/12 10:36:23;;;;;;;21.33;16.13;;;;;;;18.73;60.70;98410.09;10372198;28;20093;-59
2022/10/12 10:41:27;;;;;;;22.67;15.35;;;;;;;18.57;60.14;98407.81;10372191;28;20509;-58
2022/10/12 10:46:30;;;;;;;20.92;14.68;;;;;;;18.37;59.84;98383.75;10372336;28;20060;-58
2022/10/12 10:51:55;;;;;;;18.15;15.30;;;;;;;18.32;59.65;98396.97;10372237;28;20060;-58
2022/10/12 10:57:17;;;;;;;22.65;15.05;;;;;;;18.32;60.54;98391.72;10372178;28;20061;-59
2022/10/12 11:02:37;;;;;;;19.70;15.18;;;;;;;18.41;60.35;98382.78;10371598;28;20065;-58
2022/10/12 11:07:47;;;;;;;19.25;14.82;;;;;;;18.53;59.78;98363.25;10371624;28;20088;-58
2022/10/12 11:12:53;;;;;;;18.73;14.23;;;;;;;18.86;60.19;98368.63;10371485;28;20068;-59
2022/10/12 11:17:59;;;;;;;21.27;15.80;;;;;;;19.07;58.11;98367.22;10377276;28;20511;-59
2022/10/12 11:23:30;;;;;;;27.17;16.38;;;;;;;19.14;59.23;98361.75;10350223;28;20057;-59
2022/10/12 11:28:31;;;;;;;20.33;15.35;;;;;;;19.40;59.69;98361.06;10371304;28;20506;-59
2022/10/12 11:33:40;;;;;;;25.88;15.57;;;;;;;19.55;59.24;98359.78;10371085;28;20451;-59
2022/10/12 11:38:47;;;;;;;19.48;14.63;;;;;;;19.70;57.57;98358.53;10370730;28;20072;-59
2022/10/12 11:44:02;;;;;;;17.38;12.85;;;;;;;19.68;56.86;98349.81;10370633;28;20057;-58
2022/10/12 11:49:10;;;;;;;16.70;12.90;;;;;;;19.48;55.83;98352.94;10370814;28;20060;-59
2022/10/12 11:54:31;;;;;;;18.37;13.30;;;;;;;19.12;56.28;98337.25;10370771;28;20060;-58
2022/10/12 11:59:30;;;;;;;18.73;14.35;;;;;;;19.09;57.44;98345.22;10376014;28;20061;-58
2022/10/12 12:04:32;;;;;;;17.15;13.30;;;;;;;19.29;59.61;98346.47;10381396;28;20039;-58
2022/10/12 12:09:36;;;;;;;21.42;12.88;;;;;;;19.48;57.99;98339.78;10381602;28;20071;-59
2022/10/12 12:14:47;;;;;;;17.42;13.57;;;;;;;19.45;57.70;98343.38;10381430;28;20052;-58
2022/10/12 12:19:51;;;;;;;17.90;13.93;;;;;;;19.52;58.52;98343.22;10381054;28;20084;-59
2022/10/12 12:25:25;;;;;;;18.17;13.85;;;;;;;19.59;58.35;98350.06;10380728;28;20385;-58
2022/10/12 12:30:50;;;;;;;19.30;12.93;;;;;;;19.58;57.11;98337.78;10378494;28;20039;-58
2022/10/12 12:35:56;;;;;;;20.13;13.80;;;;;;;19.60;58.26;98346.50;10364071;28;20041;-58
2022/10/12 12:40:58;;;;;;;19.27;13.32;;;;;;;19.55;57.73;98338.72;10380849;28;20458;-59
2022/10/12 12:46:03;;;;;;;18.60;12.88;;;;;;;19.50;57.01;98334.50;10380208;28;20091;-58
2022/10/12 12:51:03;;;;;;;17.77;12.77;;;;;;;19.29;56.39;98341.22;10379755;28;20066;-59
2022/10/12 12:56:25;;;;;;;20.95;13.93;;;;;;;19.09;55.92;98344.34;10379152;28;20060;-58
2022/10/12 13:01:31;;;;;;;15.82;13.35;;;;;;;19.05;57.43;98342.72;10376005;28;20060;-58
2022/10/12 13:07:00;;;;;;;19.90;15.52;;;;;;;19.13;58.72;98348.63;10375654;28;20072;-58
2022/10/12 13:12:34;;;;;;;19.92;14.30;;;;;;;19.14;58.35;98351.22;10381730;28;20480;-59
2022/10/12 13:17:42;;;;;;;18.80;13.52;;;;;;;19.12;57.95;98344.28;10375961;28;20064;-58
2022/10/12 13:22:43;;;;;;;20.38;13.52;;;;;;;19.13;58.77;98344.22;10375325;28;20448;-58
2022/10/12 13:27:47;;;;;;;19.90;13.95;;;;;;;19.15;58.96;98357.34;10375084;28;20548;-59
2022/10/12 13:33:04;;;;;;;17.13;13.43;;;;;;;19.05;58.71;98340.94;10374470;28;20067;-58
2022/10/12 13:38:12;;;;;;;18.05;13.20;;;;;;;19.01;58.70;98341.91;10374781;28;20060;-58
2022/10/12 13:43:32;;;;;;;16.70;13.52;;;;;;;18.98;60.12;98339.38;10374839;28;20472;-58
2022/10/12 13:48:32;;;;;;;20.00;13.73;;;;;;;18.97;60.93;98338.53;10374046;28;20456;-58
2022/10/12 13:53:39;;;;;;;20.30;13.63;;;;;;;18.95;60.73;98342.97;10374103;28;20060;-59
2022/10/12 13:58:39;;;;;;;16.17;12.38;;;;;;;18.74;59.60;98346.13;10373679;28;20554;-58
2022/10/12 14:03:43;;;;;;;20.10;14.10;;;;;;;18.62;59.82;98357.78;10373409;28;20064;-58
2022/10/12 14:08:42;;;;;;;20.10;13.63;;;;;;;18.59;60.96;98350.78;10373285;28;20069;-58
2022/10/12 14:13:43;;;;;;;21.98;13.70;;;;;;;18.54;62.06;98342.16;10373457;28;20056;-58
2022/10/12 14:18:44;;;;;;;20.85;15.05;;;;;;;18.48;62.34;98350.19;10373884;28;20069;-58
2022/10/12 14:23:46;;;;;;;26.02;18.63;;;;;;;18.38;62.04;98346.03;10372437;28;20053;-58
2022/10/12 14:28:45;;;;;;;24.63;17.83;;;;;;;18.29;63.01;98341.88;10372539;28;20061;-58
2022/10/12 14:33:44;;;;;;;21.35;16.88;;;;;;;18.19;63.74;98335.94;10372616;28;20035;-58
2022/10/12 14:38:45;;;;;;;19.70;15.43;;;;;;;18.07;63.87;98330.97;10372358;28;20066;-58
2022/10/12 14:43:44;;;;;;;19.20;16.55;;;;;;;17.96;64.53;98333.84;10372493;28;20551;-58
2022/10/12 14:48:43;;;;;;;22.38;17.13;;;;;;;17.85;64.72;98334.97;10371899;28;20435;-58
2022/10/12 14:53:42;;;;;;;20.80;16.13;;;;;;;17.73;65.27;98341.28;10372304;28;20099;-58
2022/10/12 14:58:41;;;;;;;23.75;17.60;;;;;;;17.63;66.30;98331.88;10373874;28;20021;-59
2022/10/12 15:03:40;;;;;;;24.73;17.92;;;;;;;17.51;66.78;98338.22;10368970;28;20024;-58
2022/10/12 15:08:39;;;;;;;;;;;;;;;17.40;66.81;98340.19;10373848;28;20059;-58
2022/10/12 15:13:39;;;;;;;29.83;21.73;;;;;;;17.25;67.68;98336.13;10369213;28;20402;-58
2022/10/12 15:18:38;;;;;;;27.95;21.33;;;;;;;17.10;68.11;98345.13;10372207;28;20056;-58
2022/10/12 15:23:37;;;;;;;27.10;19.95;;;;;;;16.97;68.87;98348.84;10373011;28;20526;-58
2022/10/12 15:28:36;;;;;;;24.73;19.45;;;;;;;16.80;69.48;98343.88;10369309;28;20532;-59
2022/10/12 15:33:35;;;;;;;;;;;;;;;16.65;70.29;98339.72;10376064;28;20033;-58
2022/10/12 15:38:34;;;;;;;31.63;22.77;;;;;;;16.51;70.85;98355.66;10381625;28;19919;-58
2022/10/12 15:43:33;;;;;;;34.30;24.63;;;;;;;16.40;71.83;98355.84;10358205;28;20125;-58
2022/10/12 15:48:32;;;;;;;;;;;;;;;16.31;72.08;98358.59;10339019;28;20029;-58
2022/10/12 15:53:31;;;;;;;41.77;30.00;;;;;;;16.21;72.25;98357.00;10339843;28;19913;-58
2022/10/12 15:58:30;;;;;;;;;;;;;;;16.13;72.97;98366.69;10340176;28;20033;-58
2022/10/12 16:03:30;;;;;;;37.55;26.27;;;;;;;16.00;74.13;98359.00;10357637;28;19959;-58
2022/10/12 16:08:29;;;;;;;31.95;24.48;;;;;;;15.91;74.43;98364.38;10377035;28;20084;-58
2022/10/12 16:13:28;;;;;;;;;;;;;;;15.82;75.38;98375.81;10371910;28;20029;-58
2022/10/12 16:18:27;;;;;;;36.07;26.50;;;;;;;15.73;75.92;98369.78;10372951;28;19913;-58
2022/10/12 16:23:28;;;;;;;;;;;;;;;15.67;76.34;98387.31;10376306;28;20075;-58
2022/10/12 16:28:27;;;;;;;39.67;27.05;;;;;;;15.62;77.18;98393.44;10375420;28;19951;-58
2022/10/12 16:33:26;;;;;;;;;;;;;;;15.57;77.69;98395.25;10375107;28;20060;-58
2022/10/12 16:38:25;;;;;;;38.97;29.10;;;;;;;15.49;78.20;98403.19;10375592;28;19920;-58
2022/10/12 16:43:23;;;;;;;;;;;;;;;15.46;78.55;98395.38;10375233;28;20071;-58
2022/10/12 16:48:22;;;;;;;45.63;31.67;;;;;;;15.41;78.98;98395.44;10369732;28;19983;-58
2022/10/12 16:53:21;;;;;;;48.90;31.83;;;;;;;15.34;79.81;98385.91;10375120;28;20033;-58
2022/10/12 16:58:20;;;;;;;44.60;29.85;;;;;;;15.33;80.12;98401.63;10373946;28;20025;-58
2022/10/12 17:03:19;;;;;;;;;;;;;;;15.29;80.01;98397.28;10373694;28;20115;-58
2022/10/12 17:08:18;;;;;;;48.45;29.60;;;;;;;15.24;80.37;98398.19;10375069;28;19916;-58
2022/10/12 17:13:17;;;;;;;42.47;31.45;;;;;;;15.15;80.26;98376.50;10373621;28;20510;-58
2022/10/12 17:18:16;;;;;;;;;;;;;;;15.17;80.72;98404.34;10374561;28;20029;-58
2022/10/12 17:23:14;;;;;;;42.92;30.63;;;;;;;15.11;80.93;98399.19;10373999;28;20000;-58
2022/10/12 17:28:13;;;;;;;;;;;;;;;15.03;81.31;98395.78;10373784;28;20107;-58
2022/10/12 17:33:12;;;;;;;42.70;31.85;;;;;;;14.95;81.48;98390.63;10366598;28;19997;-58
2022/10/12 17:38:11;;;;;;;;;;;;;;;14.86;81.98;98389.84;10373221;28;20041;-58
2022/10/12 17:43:10;;;;;;;45.13;34.15;;;;;;;14.75;82.42;98390.75;10372184;28;19993;-58
2022/10/12 17:48:10;;;;;;;;;;;;;;;14.66;82.78;98398.63;10372833;28;20107;-58
2022/10/12 17:53:09;;;;;;;46.60;35.20;;;;;;;14.51;82.92;98377.88;10372680;28;19958;-58
2022/10/12 17:58:08;;;;;;;47.10;32.92;;;;;;;14.47;83.08;98400.50;10372651;28;20488;-58
2022/10/12 18:03:07;;;;;;;;;;;;;;;14.37;83.67;98398.84;10358037;28;20476;-57
2022/10/12 18:08:06;;;;;;;34.08;25.75;;;;;;;14.26;83.82;98408.47;10375339;28;19939;-57
2022/10/12 18:13:05;;;;;;;37.90;26.52;;;;;;;14.11;83.83;98404.19;10374464;28;20028;-57
2022/10/12 18:18:04;;;;;;;33.47;25.17;;;;;;;13.94;83.84;98396.47;10374517;28;20461;-57
2022/10/12 18:23:04;;;;;;;;;;;;;;;13.84;84.19;98406.03;10375301;28;20485;-58
2022/10/12 18:28:04;;;;;;;36.30;25.58;;;;;;;13.69;84.81;98395.66;10373896;28;20403;-57
2022/10/12 18:33:03;;;;;;;38.22;29.38;;;;;;;13.55;84.90;98396.56;10369639;28;20067;-58
2022/10/12 18:38:02;;;;;;;44.50;32.22;;;;;;;13.49;85.40;98403.50;10373228;28;20483;-58
2022/10/12 18:43:02;;;;;;;45.70;31.60;;;;;;;13.35;86.07;98407.03;10373384;28;20494;-58
2022/10/12 18:48:05;;;;;;;42.60;30.85;;;;;;;13.22;86.48;98414.84;10373790;28;20068;-57
2022/10/12 18:53:05;;;;;;;45.03;31.60;;;;;;;13.04;86.80;98406.16;10374022;28;20045;-57
2022/10/12 18:58:04;;;;;;;37.42;28.45;;;;;;;12.85;87.54;98401.84;10372021;28;20084;-57
2022/10/12 19:03:03;;;;;;;;;;;;;;;12.76;88.05;98409.66;10370231;28;20488;-57
2022/10/12 19:08:02;;;;;;;40.60;29.45;;;;;;;12.63;88.58;98403.56;10369883;28;19966;-57
2022/10/12 19:13:01;;;;;;;39.90;28.17;;;;;;;12.49;89.03;98407.00;10369920;28;20017;-58
2022/10/12 19:18:00;;;;;;;37.70;28.85;;;;;;;12.38;89.59;98405.25;10369588;28;20104;-57
2022/10/12 19:22:59;;;;;;;39.78;29.30;;;;;;;12.25;89.70;98405.19;10370067;28;20043;-57
2022/10/12 19:27:58;;;;;;;38.50;28.83;;;;;;;12.13;90.04;98412.94;10370131;28;20032;-57
2022/10/12 19:32:57;;;;;;;38.63;28.52;;;;;;;12.05;90.61;98418.13;10368960;28;20058;-58
2022/10/12 19:37:56;;;;;;;38.03;26.58;;;;;;;12.00;90.89;98422.44;10369743;28;20079;-57
2022/10/12 19:42:54;;;;;;;34.78;26.40;;;;;;;11.97;91.17;98427.66;10369514;28;20041;-57
2022/10/12 19:47:53;;;;;;;37.13;25.90;;;;;;;11.91;91.21;98418.94;10368367;28;20031;-58
2022/10/12 19:52:53;;;;;;;33.70;24.20;;;;;;;11.87;91.79;98425.84;10369491;28;20021;-57
2022/10/12 19:57:52;;;;;;;;;;;;;;;11.83;91.47;98430.19;10398845;28;20534;-58
2022/10/12 20:02:51;;;;;;;35.53;23.13;;;;;;;11.78;92.23;98434.50;10410072;28;20432;-57
2022/10/12 20:07:50;;;;;;;31.83;22.92;;;;;;;11.74;92.10;98435.34;10405081;28;20047;-58
2022/10/12 20:12:49;;;;;;;36.45;23.55;;;;;;;11.70;92.55;98428.38;10403573;28;20071;-57
2022/10/12 20:17:48;;;;;;;33.58;22.65;;;;;;;11.64;93.05;98423.13;10368642;28;20063;-57
2022/10/12 20:22:46;;;;;;;31.92;22.40;;;;;;;11.59;93.27;98435.25;10375850;28;20028;-58
2022/10/12 20:27:45;;;;;;;31.55;23.08;;;;;;;11.56;93.21;98440.44;10377141;28;20028;-57
2022/10/12 20:32:44;;;;;;;42.08;30.35;;;;;;;11.56;93.83;98440.44;10377457;28;20025;-57
2022/10/12 20:37:43;;;;;;;58.53;39.28;;;;;;;11.53;94.34;98446.47;10377362;28;20431;-57
2022/10/12 20:42:42;;;;;;;41.00;29.98;;;;;;;11.53;94.46;98445.63;10376704;28;20025;-57
2022/10/12 20:47:43;;;;;;;51.35;36.95;;;;;;;11.44;94.00;98436.88;10376772;28;20047;-57
2022/10/12 20:52:42;;;;;;;71.32;50.85;;;;;;;11.43;94.58;98442.97;10369387;28;20053;-57
2022/10/12 20:57:41;;;;;;;63.28;44.47;;;;;;;11.39;94.47;98448.13;10374962;28;20067;-57
2022/10/12 21:02:40;;;;;;;64.13;43.90;;;;;;;11.36;94.52;98453.28;10374231;28;20033;-58
2022/10/12 21:07:39;;;;;;;;;;;;;;;11.31;94.45;98465.38;10375288;28;20207;-57
2022/10/12 21:12:38;;;;;;;47.08;33.00;;;;;;;11.24;94.55;98461.84;10373471;28;20398;-57
2022/10/12 21:17:37;;;;;;;57.97;39.72;;;;;;;11.15;94.42;98456.59;10374030;28;20025;-57
2022/10/12 21:22:35;;;;;;;70.55;44.85;;;;;;;11.07;94.98;98464.31;10374040;28;20037;-57
2022/10/12 21:27:34;;;;;;;70.68;46.58;;;;;;;10.99;95.09;98451.28;10375083;28;20394;-57
2022/10/12 21:32:33;;;;;;;64.65;44.92;;;;;;;10.94;95.30;98447.78;10374685;28;20108;-57
2022/10/12 21:37:32;;;;;;;68.90;45.28;;;;;;;10.89;95.65;98441.66;10375069;28;20027;-57
2022/10/12 21:42:31;;;;;;;65.85;42.55;;;;;;;10.84;95.28;98448.50;10374662;28;20029;-57
2022/10/12 21:47:31;;;;;;;61.65;40.42;;;;;;;10.75;95.62;98420.75;10374673;28;20409;-57
2022/10/12 21:52:30;;;;;;;56.95;38.30;;;;;;;10.75;95.18;98440.63;10374115;28;20487;-57
2022/10/12 21:57:29;;;;;;;61.13;38.33;;;;;;;10.72;96.09;98448.41;10374728;28;20063;-57
2022/10/12 22:02:28;;;;;;;;;;;;;;;10.65;95.70;98438.81;10374941;28;20064;-57
2022/10/12 22:07:27;;;;;;;53.67;37.10;;;;;;;10.58;96.02;98443.94;10373325;28;19927;-57
2022/10/12 22:12:26;;;;;;;55.30;36.05;;;;;;;10.50;95.62;98432.63;10372470;28;20017;-57
2022/10/12 22:17:25;;;;;;;59.45;37.05;;;;;;;10.47;96.13;98436.91;10373108;28;20064;-57
2022/10/12 22:22:24;;;;;;;68.15;41.38;;;;;;;10.42;96.86;98444.63;10371020;28;20025;-57
2022/10/12 22:27:23;;;;;;;66.32;41.15;;;;;;;10.36;96.93;98447.19;10370304;28;20037;-57
2022/10/12 22:32:22;;;;;;;68.15;42.20;;;;;;;10.28;97.39;98441.03;10369865;28;20755;-57
2022/10/12 22:37:21;;;;;;;69.75;44.75;;;;;;;10.15;98.15;98437.44;10371316;28;20025;-57
2022/10/12 22:42:20;;;;;;;82.93;50.15;;;;;;;10.11;97.44;98446.88;10371837;28;20502;-57
2022/10/12 22:47:19;;;;;;;86.50;51.75;;;;;;;10.00;97.96;98456.25;10372388;28;20502;-57
2022/10/12 22:52:18;;;;;;;75.32;45.70;;;;;;;9.95;98.68;98463.09;10372328;28;20020;-57
2022/10/12 22:57:17;;;;;;;72.30;45.75;;;;;;;9.85;98.67;98466.44;10373279;28;20124;-57
2022/10/12 23:02:16;;;;;;;73.22;44.75;;;;;;;9.81;98.93;98464.66;10375262;28;20040;-57
2022/10/12 23:07:15;;;;;;;76.75;44.80;;;;;;;9.77;99.06;98464.63;10375066;28;20049;-57